Time;durP1;ratioP1;P1;durP2;ratioP2;P2;SDS_P1;SDS_P2;PMS_P1;PMS_P2;Temp;Humidity;BMP_temperature;BMP_pressure;BME280_temperature;BME280_humidity;BME280_pressure;Samples;Min_cycle;Max_cycle;Signal;HPM_P1;HPM_P2
2023/01/10 00:01:07;;;;;;;;;;;;;;;;;;4947328;29;19961;-81
2023/01/10 00:03:32;;;;;;;;;;;;;;;;;;4965092;28;19915;-81
2023/01/10 00:05:58;;;;;;;;;;;;;;;;;;4948316;29;19915;-81
2023/01/10 00:08:23;;;;;;;;;;;;;;;;;;4949736;29;19915;-82
2023/01/10 00:10:49;;;;;;;;;;;;;;;;;;4968549;29;19915;-82
2023/01/10 00:13:24;;;;;;;;;;;;;;;;;;4952129;29;19937;-82
2023/01/10 00:15:49;;;;;;;;;;;;;;;;;;4967416;29;19921;-82
2023/01/10 00:18:15;;;;;;;;;;;;;;;;;;4929366;29;19915;-81
2023/01/10 00:20:41;;;;;;;;;;;;;;;;;;4951051;29;19949;-82
2023/01/10 00:23:08;;;;;;;;;;;;;;;;;;4921181;29;19914;-82
2023/01/10 00:25:35;;;;;;;;;;;;;;;;;;4951442;29;19921;-82
2023/01/10 00:28:09;;;;;;;;;;;;;;;;;;4937569;29;19922;-82
2023/01/10 00:30:35;;;;;;;;;;;;;;;;;;4952879;29;19925;-82
2023/01/10 00:33:01;;;;;;;;;;;;;;;;;;4936312;29;19911;-82
2023/01/10 00:35:27;;;;;;;;;;;;;;;;;;4952792;29;19918;-82
2023/01/10 00:37:57;;;;;;;;;;;;;;;;;;4953688;29;19922;-81
2023/01/10 00:40:23;;;;;;;;;;;;;;;;;;4953692;29;19919;-82
2023/01/10 00:45:33;;;;;;;;;;;;;;;;;;4935846;29;19914;-82
2023/01/10 00:47:58;;;;;;;;;;;;;;;;;;4968793;29;19921;-81
2023/01/10 00:50:24;;;;;;;;;;;;;;;;;;4952458;28;19922;-82
2023/01/10 00:52:49;;;;;;;;;;;;;;;;;;4936207;29;19915;-82
2023/01/10 00:55:15;;;;;;;;;;;;;;;;;;4949379;29;19915;-81
2023/01/10 00:57:40;;;;;;;;;;;;;;;;;;4916843;29;19965;-81
2023/01/10 01:00:08;;;;;;;;;;;;;;;;;;4931194;29;19923;-82
2023/01/10 01:02:33;;;;;;;;;;;;;;;;;;4916479;29;19946;-81
2023/01/10 01:04:59;;;;;;;;;;;;;;;;;;4932194;29;19922;-81
2023/01/10 01:07:24;;;;;;;;;;;;;;;;;;4907931;29;19914;-82
2023/01/10 01:12:35;;;;;;;;;;;;;;;;;;4957747;29;19922;-82
2023/01/10 01:15:00;;;;;;;;;;;;;;;;;;4952027;29;19915;-81
2023/01/10 01:17:26;;;;;;;;;;;;;;;;;;4934036;29;20341;-82
2023/01/10 01:19:51;;;;;;;;;;;;;;;;;;4919008;29;19950;-81
2023/01/10 01:22:17;;;;;;;;;;;;;;;;;;4938691;29;19919;-82
2023/01/10 01:24:43;;;;;;;;;;;;;;;;;;4922784;29;19906;-81
2023/01/10 01:27:08;;;;;;;;;;;;;;;;;;4941897;29;19915;-81
2023/01/10 01:29:33;;;;;;;;;;;;;;;;;;4919142;29;19918;-81
2023/01/10 01:31:59;;;;;;;;;;;;;;;;;;4953691;29;19925;-82
2023/01/10 01:34:25;;;;;;;;;;;;;;;;;;4936303;29;19986;-82
2023/01/10 01:36:50;;;;;;;;;;;;;;;;;;4936639;29;19915;-82
2023/01/10 01:39:16;;;;;;;;;;;;;;;;;;4920382;29;19923;-82
2023/01/10 01:41:57;;;;;;;;;;;;;;;;;;4937612;29;19905;-83
2023/01/10 01:44:22;;;;;;;;;;;;;;;;;;4948993;29;19919;-82
2023/01/10 01:46:48;;;;;;;;;;;;;;;;;;4919479;29;19919;-82
2023/01/10 01:49:13;;;;;;;;;;;;;;;;;;4934448;29;19962;-82
2023/01/10 01:51:39;;;;;;;;;;;;;;;;;;4917502;29;19914;-82
2023/01/10 01:54:06;;;;;;;;;;;;;;;;;;4918295;29;19915;-81
2023/01/10 01:56:31;;;;;;;;;;;;;;;;;;4918481;29;19915;-81
2023/01/10 01:58:57;;;;;;;;;;;;;;;;;;4918277;29;19926;-81
2023/01/10 02:01:23;;;;;;;;;;;;;;;;;;4953005;29;19934;-81
2023/01/10 02:03:48;;;;;;;;;;;;;;;;;;4953631;29;19899;-82
2023/01/10 02:06:14;;;;;;;;;;;;;;;;;;4925381;29;19988;-83
2023/01/10 02:08:39;;;;;;;;;;;;;;;;;;4940817;29;19922;-83
2023/01/10 02:11:07;;;;;;;;;;;;;;;;;;4909487;29;19915;-83
2023/01/10 02:13:32;;;;;;;;;;;;;;;;;;4942350;29;19990;-82
2023/01/10 02:15:58;;;;;;;;;;;;;;;;;;4957748;29;19899;-82
2023/01/10 02:18:24;;;;;;;;;;;;;;;;;;4909118;29;19911;-82
2023/01/10 02:20:49;;;;;;;;;;;;;;;;;;4938134;29;20006;-82
2023/01/10 02:23:15;;;;;;;;;;;;;;;;;;4902241;29;19915;-82
2023/01/10 02:25:40;;;;;;;;;;;;;;;;;;4933965;29;19915;-83
2023/01/10 02:28:06;;;;;;;;;;;;;;;;;;4920012;29;19919;-83
2023/01/10 02:30:32;;;;;;;;;;;;;;;;;;4914439;29;19997;-82
2023/01/10 02:32:57;;;;;;;;;;;;;;;;;;4897961;29;19915;-81
2023/01/10 02:35:23;;;;;;;;;;;;;;;;;;4912428;29;20314;-82
2023/01/10 02:37:49;;;;;;;;;;;;;;;;;;4913722;29;19915;-81
2023/01/10 02:40:14;;;;;;;;;;;;;;;;;;4897806;29;19919;-81
2023/01/10 02:42:40;;;;;;;;;;;;;;;;;;4930779;29;19922;-81
2023/01/10 02:45:05;;;;;;;;;;;;;;;;;;4914663;29;19922;-82
2023/01/10 02:47:31;;;;;;;;;;;;;;;;;;4897073;29;19915;-82
2023/01/10 02:49:56;;;;;;;;;;;;;;;;;;4912700;29;19919;-82
2023/01/10 02:52:22;;;;;;;;;;;;;;;;;;4922174;29;19911;-82
2023/01/10 02:54:48;;;;;;;;;;;;;;;;;;4936798;29;19920;-82
2023/01/10 02:57:13;;;;;;;;;;;;;;;;;;4905277;29;19953;-82
2023/01/10 02:59:39;;;;;;;;;;;;;;;;;;4936127;29;19919;-82
2023/01/10 03:02:04;;;;;;;;;;;;;;;;;;4934705;29;19927;-82
2023/01/10 03:04:30;;;;;;;;;;;;;;;;;;4936513;29;19982;-82
2023/01/10 03:06:58;;;;;;;;;;;;;;;;;;4948747;29;19961;-82
2023/01/10 03:09:23;;;;;;;;;;;;;;;;;;4940575;29;19899;-82
2023/01/10 03:11:49;;;;;;;;;;;;;;;;;;4926970;29;19926;-81
2023/01/10 03:14:14;;;;;;;;;;;;;;;;;;4941637;29;19915;-82
2023/01/10 03:16:40;;;;;;;;;;;;;;;;;;4926184;29;20010;-81
2023/01/10 03:19:05;;;;;;;;;;;;;;;;;;4940698;29;19923;-82
2023/01/10 03:21:31;;;;;;;;;;;;;;;;;;4922709;29;19974;-82
2023/01/10 03:23:56;;;;;;;;;;;;;;;;;;4940001;29;19919;-82
2023/01/10 03:26:22;;;;;;;;;;;;;;;;;;4939435;29;19982;-82
2023/01/10 03:28:47;;;;;;;;;;;;;;;;;;4953005;23;19915;-78
2023/01/10 03:31:13;;;;;;;;;;;;;;;;;;4947802;29;19919;-79
2023/01/10 03:33:38;;;;;;;;;;;;;;;;;;4921121;29;19915;-79
2023/01/10 03:36:03;;;;;;;;;;;;;;;;;;4937921;29;20370;-79
2023/01/10 03:38:31;;;;;;;;;;;;;;;;;;4937784;29;19915;-78
2023/01/10 03:40:56;;;;;;;;;;;;;;;;;;4932795;29;19982;-79
2023/01/10 03:46:06;;;;;;;;;;;;;;;;;;4937092;29;19919;-77
2023/01/10 03:48:31;;;;;;;;;;;;;;;;;;4934119;29;19983;-79
2023/01/10 03:50:57;;;;;;;;;;;;;;;;;;4933182;29;20434;-79
2023/01/10 03:53:22;;;;;;;;;;;;;;;;;;4930870;29;19915;-79
2023/01/10 03:55:48;;;;;;;;;;;;;;;;;;4928535;29;19922;-80
2023/01/10 03:58:13;;;;;;;;;;;;;;;;;;4926835;29;19916;-79
2023/01/10 04:00:40;;;;;;;;;;;;;;;;;;4923928;29;20006;-80
2023/01/10 04:03:05;;;;;;;;;;;;;;;;;;4925266;29;20401;-80
2023/01/10 04:05:31;;;;;;;;;;;;;;;;;;4924134;29;19954;-79
2023/01/10 04:07:56;;;;;;;;;;;;;;;;;;4923822;29;19986;-79
2023/01/10 04:10:23;;;;;;;;;;;;;;;;;;4925624;29;20005;-80
2023/01/10 04:12:48;;;;;;;;;;;;;;;;;;4926835;29;19915;-79
2023/01/10 04:15:14;;;;;;;;;;;;;;;;;;4927299;29;20017;-79
2023/01/10 04:17:39;;;;;;;;;;;;;;;;;;4927509;29;20354;-79
2023/01/10 04:20:05;;;;;;;;;;;;;;;;;;4927512;29;20383;-79
2023/01/10 04:22:30;;;;;;;;;;;;;;;;;;4926637;29;19951;-79
2023/01/10 04:24:55;;;;;;;;;;;;;;;;;;4925457;29;19983;-79
2023/01/10 04:27:21;;;;;;;;;;;;;;;;;;4922685;29;19955;-79
2023/01/10 04:29:46;;;;;;;;;;;;;;;;;;4924163;29;19923;-79
2023/01/10 04:32:12;;;;;;;;;;;;;;;;;;4924179;29;19915;-79
2023/01/10 04:34:37;;;;;;;;;;;;;;;;;;4908554;29;20005;-79
2023/01/10 04:37:02;;;;;;;;;;;;;;;;;;4924081;29;19919;-79
2023/01/10 04:39:28;;;;;;;;;;;;;;;;;;4924985;29;19919;-79
2023/01/10 04:41:53;;;;;;;;;;;;;;;;;;4922785;29;19919;-79
2023/01/10 04:44:18;;;;;;;;;;;;;;;;;;4924438;29;19939;-79
2023/01/10 04:46:44;;;;;;;;;;;;;;;;;;4921989;29;20370;-79
2023/01/10 04:49:09;;;;;;;;;;;;;;;;;;4920212;29;20394;-79
2023/01/10 04:51:35;;;;;;;;;;;;;;;;;;4921020;29;19915;-79
2023/01/10 04:54:00;;;;;;;;;;;;;;;;;;4923558;29;19916;-79
2023/01/10 04:56:26;;;;;;;;;;;;;;;;;;4925607;29;20060;-79
2023/01/10 04:58:51;;;;;;;;;;;;;;;;;;4927112;29;19919;-79
2023/01/10 05:01:16;;;;;;;;;;;;;;;;;;4927712;29;19919;-79
2023/01/10 05:03:42;;;;;;;;;;;;;;;;;;4924504;29;19916;-79
2023/01/10 05:06:07;;;;;;;;;;;;;;;;;;4922488;29;20564;-79
2023/01/10 05:08:33;;;;;;;;;;;;;;;;;;4923358;29;19923;-79
2023/01/10 05:10:58;;;;;;;;;;;;;;;;;;4923067;29;19965;-79
2023/01/10 05:13:24;;;;;;;;;;;;;;;;;;4922332;29;19923;-79
2023/01/10 05:15:49;;;;;;;;;;;;;;;;;;4921362;29;20350;-79
2023/01/10 05:18:15;;;;;;;;;;;;;;;;;;4926906;29;19922;-79
2023/01/10 05:20:40;;;;;;;;;;;;;;;;;;4922738;29;19926;-79
2023/01/10 05:23:05;;;;;;;;;;;;;;;;;;4918251;29;20346;-78
2023/01/10 05:25:31;;;;;;;;;;;;;;;;;;4919297;29;20375;-79
2023/01/10 05:27:56;;;;;;;;;;;;;;;;;;4917235;29;20490;-78
2023/01/10 05:30:22;;;;;;;;;;;;;;;;;;4918561;29;19923;-78
2023/01/10 05:32:47;;;;;;;;;;;;;;;;;;4917685;29;19911;-79
2023/01/10 05:35:12;;;;;;;;;;;;;;;;;;4918451;29;19915;-79
2023/01/10 05:37:38;;;;;;;;;;;;;;;;;;4917565;29;20302;-79
2023/01/10 05:40:03;;;;;;;;;;;;;;;;;;4917116;29;19919;-79
2023/01/10 05:42:29;;;;;;;;;;;;;;;;;;4918555;29;19916;-79
2023/01/10 05:44:54;;;;;;;;;;;;;;;;;;4917464;29;20009;-79
2023/01/10 05:47:19;;;;;;;;;;;;;;;;;;4916859;29;20410;-79
2023/01/10 05:49:45;;;;;;;;;;;;;;;;;;4901767;29;19954;-79
2023/01/10 05:52:10;;;;;;;;;;;;;;;;;;4916441;29;19951;-79
2023/01/10 05:54:36;;;;;;;;;;;;;;;;;;4917437;29;19962;-79
2023/01/10 05:57:01;;;;;;;;;;;;;;;;;;4917092;29;19970;-78
2023/01/10 05:59:26;;;;;;;;;;;;;;;;;;4931364;29;19923;-78
2023/01/10 06:01:52;;;;;;;;;;;;;;;;;;4917554;29;20410;-78
2023/01/10 06:04:17;;;;;;;;;;;;;;;;;;4916286;29;19961;-78
2023/01/10 06:06:43;;;;;;;;;;;;;;;;;;4916511;29;19915;-79
2023/01/10 06:09:08;;;;;;;;;;;;;;;;;;4917608;29;19911;-79
2023/01/10 06:11:36;;;;;;;;;;;;;;;;;;4917343;29;20417;-78
2023/01/10 06:14:01;;;;;;;;;;;;;;;;;;4917367;29;20379;-79
2023/01/10 06:16:27;;;;;;;;;;;;;;;;;;4917499;29;19926;-79
2023/01/10 06:18:52;;;;;;;;;;;;;;;;;;4916623;29;20030;-79
2023/01/10 06:21:17;;;;;;;;;;;;;;;;;;4916952;29;20373;-79
2023/01/10 06:23:43;;;;;;;;;;;;;;;;;;4917436;29;19921;-78
2023/01/10 06:26:08;;;;;;;;;;;;;;;;;;4917118;29;20064;-78
2023/01/10 06:28:34;;;;;;;;;;;;;;;;;;4917650;29;20002;-78
2023/01/10 06:30:59;;;;;;;;;;;;;;;;;;4917371;29;19919;-78
2023/01/10 06:33:25;;;;;;;;;;;;;;;;;;4932216;29;19916;-78
2023/01/10 06:35:51;;;;;;;;;;;;;;;;;;4916747;29;19978;-78
2023/01/10 06:38:17;;;;;;;;;;;;;;;;;;4915507;29;20005;-79
2023/01/10 06:40:42;;;;;;;;;;;;;;;;;;4916475;29;19923;-78
2023/01/10 06:43:07;;;;;;;;;;;;;;;;;;4900047;29;20062;-79
2023/01/10 06:45:33;;;;;;;;;;;;;;;;;;4901032;29;19974;-78
2023/01/10 06:47:58;;;;;;;;;;;;;;;;;;4916104;29;19916;-79
2023/01/10 06:50:24;;;;;;;;;;;;;;;;;;4931083;29;19922;-79
2023/01/10 06:52:49;;;;;;;;;;;;;;;;;;4916492;29;19918;-79
2023/01/10 06:55:14;;;;;;;;;;;;;;;;;;4916443;29;20405;-79
2023/01/10 06:57:40;;;;;;;;;;;;;;;;;;4899841;29;19940;-78
2023/01/10 07:00:05;;;;;;;;;;;;;;;;;;4915710;29;19974;-79
2023/01/10 07:02:31;;;;;;;;;;;;;;;;;;4916024;29;19921;-79
2023/01/10 07:04:56;;;;;;;;;;;;;;;;;;4916661;29;19919;-79
2023/01/10 07:07:21;;;;;;;;;;;;;;;;;;4915804;29;19998;-78
2023/01/10 07:09:47;;;;;;;;;;;;;;;;;;4916923;29;20303;-78
2023/01/10 07:12:12;;;;;;;;;;;;;;;;;;4916170;29;19915;-79
2023/01/10 07:14:38;;;;;;;;;;;;;;;;;;4931728;29;19922;-79
2023/01/10 07:17:03;;;;;;;;;;;;;;;;;;4931551;29;19915;-79
2023/01/10 07:19:29;;;;;;;;;;;;;;;;;;4916634;29;19919;-79
2023/01/10 07:21:54;;;;;;;;;;;;;;;;;;4916877;29;19921;-79
2023/01/10 07:24:19;;;;;;;;;;;;;;;;;;4916684;29;19938;-79
2023/01/10 07:26:45;;;;;;;;;;;;;;;;;;4917042;29;20529;-79
2023/01/10 07:29:10;;;;;;;;;;;;;;;;;;4916137;29;19919;-78
2023/01/10 07:31:36;;;;;;;;;;;;;;;;;;4915925;29;20374;-79
2023/01/10 07:34:01;;;;;;;;;;;;;;;;;;4916888;29;19915;-78
2023/01/10 07:36:26;;;;;;;;;;;;;;;;;;4931177;29;19951;-78
2023/01/10 07:38:52;;;;;;;;;;;;;;;;;;4916331;29;20438;-79
2023/01/10 07:41:17;;;;;;;;;;;;;;;;;;4915407;29;19915;-78
2023/01/10 07:43:43;;;;;;;;;;;;;;;;;;4915645;29;19921;-79
2023/01/10 07:46:09;;;;;;;;;;;;;;;;;;4916296;29;19919;-79
2023/01/10 07:48:35;;;;;;;;;;;;;;;;;;4917127;29;19915;-79
2023/01/10 07:51:00;;;;;;;;;;;;;;;;;;4917787;29;20326;-78
2023/01/10 07:53:26;;;;;;;;;;;;;;;;;;4917442;29;19915;-79
2023/01/10 07:55:51;;;;;;;;;;;;;;;;;;4916543;29;19915;-80
2023/01/10 07:58:17;;;;;;;;;;;;;;;;;;4900858;29;19973;-79
2023/01/10 08:00:42;;;;;;;;;;;;;;;;;;4917571;29;19919;-79
2023/01/10 08:03:07;;;;;;;;;;;;;;;;;;4920441;29;20383;-79
2023/01/10 08:05:33;;;;;;;;;;;;;;;;;;4920616;29;19958;-78
2023/01/10 08:07:59;;;;;;;;;;;;;;;;;;4923882;29;20375;-78
2023/01/10 08:10:24;;;;;;;;;;;;;;;;;;4923778;29;19916;-78
2023/01/10 08:12:50;;;;;;;;;;;;;;;;;;4922314;29;19959;-79
2023/01/10 08:15:15;;;;;;;;;;;;;;;;;;4925139;29;19922;-79
2023/01/10 08:17:40;;;;;;;;;;;;;;;;;;4925109;29;20351;-79
2023/01/10 08:20:06;;;;;;;;;;;;;;;;;;4921617;29;19927;-79
2023/01/10 08:22:31;;;;;;;;;;;;;;;;;;4937599;29;19915;-79
2023/01/10 08:24:57;;;;;;;;;;;;;;;;;;4921345;29;20002;-79
2023/01/10 08:27:22;;;;;;;;;;;;;;;;;;4922334;29;19915;-79
2023/01/10 08:29:48;;;;;;;;;;;;;;;;;;4906507;29;19943;-79
2023/01/10 08:32:13;;;;;;;;;;;;;;;;;;4927296;29;19923;-79
2023/01/10 08:34:38;;;;;;;;;;;;;;;;;;4926009;29;19937;-80
2023/01/10 08:37:04;;;;;;;;;;;;;;;;;;4922859;29;20370;-80
2023/01/10 08:39:29;;;;;;;;;;;;;;;;;;4921552;29;20374;-79
2023/01/10 08:41:55;;;;;;;;;;;;;;;;;;4905251;29;19922;-80
2023/01/10 08:44:20;;;;;;;;;;;;;;;;;;4924324;29;20573;-79
2023/01/10 08:46:45;;;;;;;;;;;;;;;;;;4925300;29;19983;-80
2023/01/10 08:49:11;;;;;;;;;;;;;;;;;;4890612;29;19915;-79
2023/01/10 08:51:36;;;;;;;;;;;;;;;;;;4924990;29;19926;-80
2023/01/10 08:54:02;;;;;;;;;;;;;;;;;;4908018;29;19983;-81
2023/01/10 08:56:27;;;;;;;;;;;;;;;;;;4924900;29;19962;-81
2023/01/10 08:58:52;;;;;;;;;;;;;;;;;;4925095;29;19919;-81
2023/01/10 09:01:18;;;;;;;;;;;;;;;;;;4924366;29;20262;-81
2023/01/10 09:03:44;;;;;;;;;;;;;;;;;;4925796;29;19994;-81
2023/01/10 09:06:09;;;;;;;;;;;;;;;;;;4939935;29;20014;-81
2023/01/10 09:08:35;;;;;;;;;;;;;;;;;;4926715;29;19915;-81
2023/01/10 09:11:00;;;;;;;;;;;;;;;;;;4925083;29;19998;-79
2023/01/10 09:13:26;;;;;;;;;;;;;;;;;;4918976;29;20461;-78
2023/01/10 09:15:51;;;;;;;;;;;;;;;;;;4917743;29;20365;-78
2023/01/10 09:18:17;;;;;;;;;;;;;;;;;;4917671;29;20386;-78
2023/01/10 09:20:42;;;;;;;;;;;;;;;;;;4916904;29;19919;-78
2023/01/10 09:23:08;;;;;;;;;;;;;;;;;;4918765;29;19919;-78
2023/01/10 09:25:33;;;;;;;;;;;;;;;;;;4918553;29;19918;-78
2023/01/10 09:27:58;;;;;;;;;;;;;;;;;;4918725;29;19915;-78
2023/01/10 09:30:24;;;;;;;;;;;;;;;;;;4960894;23;19930;-82
2023/01/10 09:32:49;;;;;;;;;;;;;;;;;;4958260;29;19914;-82
2023/01/10 09:35:15;;;;;;;;;;;;;;;;;;4975423;29;20370;-82
2023/01/10 09:37:40;;;;;;;;;;;;;;;;;;4976690;29;19919;-82
2023/01/10 09:40:08;;;;;;;;;;;;;;;;;;4972671;29;19919;-82
2023/01/10 09:42:34;;;;;;;;;;;;;;;;;;4973276;29;19957;-81
2023/01/10 09:44:59;;;;;;;;;;;;;;;;;;4957603;29;20405;-82
2023/01/10 09:47:25;;;;;;;;;;;;;;;;;;4942862;29;19978;-82
2023/01/10 09:49:51;;;;;;;;;;;;;;;;;;4958609;29;19919;-81
2023/01/10 09:52:18;;;;;;;;;;;;;;;;;;4972593;29;20444;-81
2023/01/10 09:54:44;;;;;;;;;;;;;;;;;;4940872;29;19920;-81
2023/01/10 09:57:09;;;;;;;;;;;;;;;;;;4959538;29;19942;-81
2023/01/10 09:59:35;;;;;;;;;;;;;;;;;;4942434;29;19918;-82
2023/01/10 10:02:18;;;;;;;;;;;;;;;;;;4958598;29;19919;-82
2023/01/10 10:04:45;;;;;;;;;;;;;;;;;;4939225;29;19921;-82
2023/01/10 10:07:11;;;;;;;;;;;;;;;;;;4939528;29;19986;-81
2023/01/10 10:09:39;;;;;;;;;;;;;;;;;;4957178;29;19968;-82
2023/01/10 10:12:05;;;;;;;;;;;;;;;;;;4936930;29;19930;-82
2023/01/10 10:14:30;;;;;;;;;;;;;;;;;;4939612;29;19954;-81
2023/01/10 10:16:56;;;;;;;;;;;;;;;;;;4938846;29;19915;-82
2023/01/10 10:19:22;;;;;;;;;;;;;;;;;;4940455;29;19985;-82
2023/01/10 10:21:50;;;;;;;;;;;;;;;;;;4938927;29;20426;-82
2023/01/10 10:24:16;;;;;;;;;;;;;;;;;;4938274;29;19915;-81
2023/01/10 10:26:42;;;;;;;;;;;;;;;;;;4938301;29;20372;-81
2023/01/10 10:29:07;;;;;;;;;;;;;;;;;;4956909;29;19911;-81
2023/01/10 10:31:33;;;;;;;;;;;;;;;;;;4956660;29;19943;-82
2023/01/10 10:33:58;;;;;;;;;;;;;;;;;;4938570;29;19914;-82
2023/01/10 10:36:24;;;;;;;;;;;;;;;;;;4937819;29;19914;-82
2023/01/10 10:38:49;;;;;;;;;;;;;;;;;;4949625;29;19930;-82
2023/01/10 10:41:18;;;;;;;;;;;;;;;;;;4973750;28;19949;-81
2023/01/10 10:43:43;;;;;;;;;;;;;;;;;;4943260;29;19996;-81
2023/01/10 10:46:09;;;;;;;;;;;;;;;;;;4976231;29;19922;-82
2023/01/10 10:48:34;;;;;;;;;;;;;;;;;;4958303;29;19914;-81
2023/01/10 10:51:00;;;;;;;;;;;;;;;;;;4974437;29;19918;-82
2023/01/10 10:53:26;;;;;;;;;;;;;;;;;;4959293;29;19937;-81
2023/01/10 10:55:52;;;;;;;;;;;;;;;;;;4972783;28;19922;-81
2023/01/10 10:58:17;;;;;;;;;;;;;;;;;;4941029;29;20477;-82
2023/01/10 11:00:43;;;;;;;;;;;;;;;;;;4956380;29;19914;-81
2023/01/10 11:03:11;;;;;;;;;;;;;;;;;;4956790;29;19906;-81
2023/01/10 11:05:37;;;;;;;;;;;;;;;;;;4940202;29;20275;-81
2023/01/10 11:08:06;;;;;;;;;;;;;;;;;;4939554;29;19938;-81
2023/01/10 11:10:34;;;;;;;;;;;;;;;;;;4938190;29;19915;-81
2023/01/10 11:13:00;;;;;;;;;;;;;;;;;;4950707;29;19914;-82
2023/01/10 11:15:25;;;;;;;;;;;;;;;;;;4920681;29;19915;-81
2023/01/10 11:17:51;;;;;;;;;;;;;;;;;;4937798;29;19915;-82
2023/01/10 11:20:16;;;;;;;;;;;;;;;;;;4933571;29;20347;-81
2023/01/10 11:22:42;;;;;;;;;;;;;;;;;;4943170;29;19925;-81
2023/01/10 11:25:08;;;;;;;;;;;;;;;;;;4927989;29;19915;-81
2023/01/10 11:27:33;;;;;;;;;;;;;;;;;;4948042;29;19911;-79
2023/01/10 12:07:46;;;;;;;;;;;;;;;;;;6007035;23;20823;-83
2023/01/10 14:13:23;;;;;;;;;;;;;;;;;;5024153;23;19923;-83
2023/01/10 14:15:49;;;;;;;;;;;;;;;;;;4891607;29;20053;-85
2023/01/10 14:18:32;;;;;;;;;;;;;;;;;;5142236;23;19912;-85
2023/01/10 14:21:09;;;;;;;;;;;;;;;;;;4957624;29;19912;-83
2023/01/10 14:23:39;;;;;;;;;;;;;;;;;;4942077;28;19919;-82
2023/01/10 14:28:48;;;;;;;;;;;;;;;;;;5059321;23;19910;-83
2023/01/10 14:31:15;;;;;;;;;;;;;;;;;;4959556;28;19930;-84
2023/01/10 14:33:43;;;;;;;;;;;;;;;;;;4944027;29;19903;-84
2023/01/10 14:36:12;;;;;;;;;;;;;;;;;;4944257;29;19930;-84
2023/01/10 14:38:38;;;;;;;;;;;;;;;;;;4959865;29;19915;-84
2023/01/10 14:41:03;;;;;;;;;;;;;;;;;;4959904;28;19949;-84
2023/01/10 15:00:03;;;;;;;;;;;;;;;;;;;;;
2023/01/10 15:07:59;;;;;;;;;;;;;;;;;;5853725;23;19923;-83
2023/01/10 15:10:27;;;;;;;;;;;;;;;;;;5700318;23;19978;-84
2023/01/10 15:26:52;;;;;;;;;;;;;;;;;;6023687;23;19921;-82
2023/01/10 15:29:18;;;;;;;;;;;;;;;;;;4965957;28;19923;-85
2023/01/10 15:42:34;;;;;;;;;;;;;;;;;;5800362;23;19994;-82
2023/01/10 15:45:04;;;;;;;;;;;;;;;;;;4947847;29;19918;-84
2023/01/10 15:48:06;;;;;;;;;;;;;;;;;;4953138;28;19903;-85
2023/01/10 16:01:27;;;;;;;;;;;;;;;;;;5387157;23;19930;-82
2023/01/10 16:06:35;;;;;;;;;;;;;;;;;;5310241;23;19924;-83
2023/01/10 16:14:33;;;;;;;;;;;;;;;;;;4963282;28;19902;-84
2023/01/10 16:17:03;;;;;;;;;;;;;;;;;;5257198;23;19934;-83
2023/01/10 16:19:33;;;;;;;;;;;;;;;;;;4932813;29;19923;-84
2023/01/10 16:22:04;;;;;;;;;;;;;;;;;;4931200;29;19903;-83
2023/01/10 16:24:34;;;;;;;;;;;;;;;;;;4916394;28;19911;-84
2023/01/10 16:27:04;;;;;;;;;;;;;;;;;;4940503;23;19978;-83
2023/01/10 16:35:04;;;;;;;;;;;;;;;;;;5246191;23;19934;-84
2023/01/10 16:37:35;;;;;;;;;;;;;;;;;;4966570;28;19903;-84
2023/01/10 16:40:07;;;;;;;;;;;;;;;;;;4950150;28;20515;-84
2023/01/10 16:47:52;;;;;;;;;;;;;;;;;;4926161;28;19931;-84
2023/01/10 16:53:17;;;;;;;;;;;;;;;;;;4907064;29;19935;-83
2023/01/10 16:55:45;;;;;;;;;;;;;;;;;;4894617;29;19926;-83
2023/01/10 16:58:11;;;;;;;;;;;;;;;;;;4897170;29;20001;-82
2023/01/10 17:00:36;;;;;;;;;;;;;;;;;;4902010;29;20367;-81
2023/01/10 17:03:01;;;;;;;;;;;;;;;;;;4887262;29;20442;-81
2023/01/10 17:05:27;;;;;;;;;;;;;;;;;;4881003;29;20284;-80
2023/01/10 17:07:53;;;;;;;;;;;;;;;;;;4882161;29;19922;-80
2023/01/10 17:10:18;;;;;;;;;;;;;;;;;;4865518;29;20217;-80
2023/01/10 17:12:44;;;;;;;;;;;;;;;;;;4880796;29;19972;-81
2023/01/10 17:15:10;;;;;;;;;;;;;;;;;;4879840;29;19916;-80
2023/01/10 17:17:35;;;;;;;;;;;;;;;;;;4884390;29;20295;-80
2023/01/10 17:20:05;;;;;;;;;;;;;;;;;;4884118;29;19919;-82
2023/01/10 17:22:30;;;;;;;;;;;;;;;;;;4899104;29;19923;-81
2023/01/10 17:24:55;;;;;;;;;;;;;;;;;;4883834;29;19935;-80
2023/01/10 17:27:21;;;;;;;;;;;;;;;;;;4898548;29;20371;-81
2023/01/10 17:29:46;;;;;;;;;;;;;;;;;;4898885;29;19966;-81
2023/01/10 17:32:12;;;;;;;;;;;;;;;;;;4883151;29;19970;-80
2023/01/10 17:34:40;;;;;;;;;;;;;;;;;;4897270;29;19963;-80
2023/01/10 17:37:06;;;;;;;;;;;;;;;;;;4899236;29;19958;-81
2023/01/10 17:39:31;;;;;;;;;;;;;;;;;;4882573;29;20426;-80
2023/01/10 17:41:57;;;;;;;;;;;;;;;;;;4899229;29;20405;-81
2023/01/10 17:44:25;;;;;;;;;;;;;;;;;;4882599;29;20412;-80
2023/01/10 17:46:50;;;;;;;;;;;;;;;;;;4898306;29;19987;-80
2023/01/10 17:49:16;;;;;;;;;;;;;;;;;;4881915;29;19964;-80
2023/01/10 17:51:41;;;;;;;;;;;;;;;;;;4878672;29;20022;-80
2023/01/10 17:54:07;;;;;;;;;;;;;;;;;;4880301;29;19916;-80
2023/01/10 17:56:32;;;;;;;;;;;;;;;;;;4878976;29;20276;-81
2023/01/10 17:58:57;;;;;;;;;;;;;;;;;;4863416;29;19916;-80
2023/01/10 18:01:23;;;;;;;;;;;;;;;;;;4863564;29;19916;-80
2023/01/10 18:03:52;;;;;;;;;;;;;;;;;;4879672;29;19998;-80
2023/01/10 18:06:17;;;;;;;;;;;;;;;;;;4889117;29;19916;-81
2023/01/10 18:08:42;;;;;;;;;;;;;;;;;;4881864;29;19999;-80
2023/01/10 18:11:08;;;;;;;;;;;;;;;;;;4882309;29;19947;-80
2023/01/10 18:13:33;;;;;;;;;;;;;;;;;;4904653;29;19919;-81
2023/01/10 18:15:59;;;;;;;;;;;;;;;;;;4912848;29;19928;-81
2023/01/10 18:18:26;;;;;;;;;;;;;;;;;;4910025;29;19919;-81
2023/01/10 18:20:56;;;;;;;;;;;;;;;;;;4901691;29;19950;-81
2023/01/10 18:23:22;;;;;;;;;;;;;;;;;;4902700;29;19916;-82
2023/01/10 18:25:47;;;;;;;;;;;;;;;;;;4901948;29;20396;-81
2023/01/10 18:28:12;;;;;;;;;;;;;;;;;;4902784;29;20383;-81
2023/01/10 18:30:39;;;;;;;;;;;;;;;;;;4882273;29;20402;-81
2023/01/10 18:33:04;;;;;;;;;;;;;;;;;;4896537;29;19921;-80
2023/01/10 18:35:30;;;;;;;;;;;;;;;;;;4897657;29;19916;-80
2023/01/10 18:37:56;;;;;;;;;;;;;;;;;;4869998;29;19916;-80
2023/01/10 18:40:21;;;;;;;;;;;;;;;;;;4879685;29;19950;-81
2023/01/10 18:42:52;;;;;;;;;;;;;;;;;;4878113;29;19938;-80
2023/01/10 18:45:17;;;;;;;;;;;;;;;;;;4878211;29;20368;-80
2023/01/10 18:47:43;;;;;;;;;;;;;;;;;;4882868;29;19932;-81
2023/01/10 18:50:08;;;;;;;;;;;;;;;;;;4883883;29;19916;-80
2023/01/10 18:52:33;;;;;;;;;;;;;;;;;;4884427;29;19926;-80
2023/01/10 18:54:59;;;;;;;;;;;;;;;;;;4897677;29;19994;-80
2023/01/10 18:57:24;;;;;;;;;;;;;;;;;;4897808;29;20391;-81
2023/01/10 18:59:50;;;;;;;;;;;;;;;;;;4897577;29;19919;-80
2023/01/10 19:02:15;;;;;;;;;;;;;;;;;;4881311;29;19970;-80
2023/01/10 19:04:41;;;;;;;;;;;;;;;;;;4896536;29;19919;-81
2023/01/10 19:07:06;;;;;;;;;;;;;;;;;;4896789;29;20354;-80
2023/01/10 19:09:31;;;;;;;;;;;;;;;;;;4881919;29;19920;-80
2023/01/10 19:11:57;;;;;;;;;;;;;;;;;;4907403;29;19916;-80
2023/01/10 19:14:22;;;;;;;;;;;;;;;;;;4900301;29;19926;-80
2023/01/10 19:16:48;;;;;;;;;;;;;;;;;;4896432;29;19922;-80
2023/01/10 19:19:13;;;;;;;;;;;;;;;;;;4897430;29;19920;-81
2023/01/10 19:21:39;;;;;;;;;;;;;;;;;;4896069;29;20283;-80
2023/01/10 19:24:05;;;;;;;;;;;;;;;;;;4897260;29;19922;-81
2023/01/10 19:26:31;;;;;;;;;;;;;;;;;;4895287;29;19916;-81
2023/01/10 19:28:56;;;;;;;;;;;;;;;;;;4880708;29;20327;-80
2023/01/10 19:31:21;;;;;;;;;;;;;;;;;;4897223;29;20384;-80
2023/01/10 19:33:49;;;;;;;;;;;;;;;;;;4880733;29;20002;-80
2023/01/10 19:36:14;;;;;;;;;;;;;;;;;;4896258;29;20002;-81
2023/01/10 19:38:40;;;;;;;;;;;;;;;;;;4880859;29;20026;-81
2023/01/10 19:41:05;;;;;;;;;;;;;;;;;;4896515;29;20356;-79
2023/01/10 19:43:32;;;;;;;;;;;;;;;;;;4896696;29;20366;-81
2023/01/10 19:45:58;;;;;;;;;;;;;;;;;;4896011;29;19915;-80
2023/01/10 19:48:24;;;;;;;;;;;;;;;;;;4897058;29;19963;-80
2023/01/10 19:50:49;;;;;;;;;;;;;;;;;;4897012;29;19916;-81
2023/01/10 19:53:14;;;;;;;;;;;;;;;;;;4896911;29;20087;-81
2023/01/10 19:55:40;;;;;;;;;;;;;;;;;;4880183;29;19958;-80
2023/01/10 19:58:05;;;;;;;;;;;;;;;;;;4899328;29;20383;-81
2023/01/10 20:00:31;;;;;;;;;;;;;;;;;;4899059;29;19916;-80
2023/01/10 20:02:56;;;;;;;;;;;;;;;;;;4900434;29;19916;-80
2023/01/10 20:05:22;;;;;;;;;;;;;;;;;;4900294;29;19919;-81
2023/01/10 20:07:47;;;;;;;;;;;;;;;;;;4900167;29;20419;-80
2023/01/10 20:10:13;;;;;;;;;;;;;;;;;;4899249;29;20006;-79
2023/01/10 20:12:38;;;;;;;;;;;;;;;;;;4900761;29;19970;-80
2023/01/10 20:15:04;;;;;;;;;;;;;;;;;;4883123;29;20421;-80
2023/01/10 20:17:29;;;;;;;;;;;;;;;;;;4900285;29;19923;-79
2023/01/10 20:19:56;;;;;;;;;;;;;;;;;;4883523;29;19927;-80
2023/01/10 20:22:22;;;;;;;;;;;;;;;;;;4883877;29;19951;-80
2023/01/10 20:24:47;;;;;;;;;;;;;;;;;;4900887;29;19916;-81
2023/01/10 20:27:13;;;;;;;;;;;;;;;;;;4899568;29;19915;-81
2023/01/10 20:29:41;;;;;;;;;;;;;;;;;;4900210;29;20260;-80
2023/01/10 20:32:06;;;;;;;;;;;;;;;;;;4898229;29;19919;-80
2023/01/10 20:34:32;;;;;;;;;;;;;;;;;;4900021;29;19971;-80
2023/01/10 20:36:57;;;;;;;;;;;;;;;;;;4902117;29;19915;-81
2023/01/10 20:39:24;;;;;;;;;;;;;;;;;;4901449;29;19924;-80
2023/01/10 20:41:50;;;;;;;;;;;;;;;;;;4903025;29;19998;-80
2023/01/10 20:44:15;;;;;;;;;;;;;;;;;;4903390;29;19915;-80
2023/01/10 20:46:41;;;;;;;;;;;;;;;;;;4900906;29;20391;-80
2023/01/10 20:49:06;;;;;;;;;;;;;;;;;;4884761;29;20390;-81